Terminal Aerodrome Forecast
Issued by NWS Chicago, IL

Home | Current Version | Previous Version | Text Only | Print | Product List | Glossary Off
Versions: 1 2 3 4 5 6 7 8 9 10 11 12 13 14 15 16 17 18 19 20 21 22 23 24 25 26 27 28 29 30

842
FTUS43 KLOT 280511 AAB
TAFRFD
TAF AMD
KRFD 280511Z 2805/2824 06005KT P6SM -RA VCSH OVC028
     FM280800 09010G15KT 5SM -SHRA BR SCT008 OVC012
     FM281100 07012G16KT P6SM SCT007 OVC010
     FM281500 06014G20KT P6SM VCSH OVC015
     FM282000 05011KT P6SM OVC015=

USA.gov is the U.S. government's official web portal to all federal, state and local government web resources and services.